createdAt,value
2018-10-19T00:00:57.056Z,81.00
2018-10-19T00:03:28.892Z,81.10
2018-10-19T00:06:01.202Z,81.50
2018-10-19T00:08:33.027Z,81.80
2018-10-19T00:11:05.110Z,82.10
2018-10-19T00:13:38.081Z,82.80
2018-10-19T00:16:09.863Z,83.20
2018-10-19T00:18:41.686Z,83.50
2018-10-19T00:21:13.469Z,83.50
2018-10-19T00:23:45.484Z,83.40
2018-10-19T00:26:17.205Z,83.30
2018-10-19T00:28:49.013Z,83.30
2018-10-19T00:31:21.869Z,83.10
2018-10-19T00:33:54.531Z,84.10
2018-10-19T00:36:26.601Z,83.10
2018-10-19T00:38:58.234Z,83.40
2018-10-19T00:41:30.116Z,83.50
2018-10-19T00:44:02.000Z,83.50
2018-10-19T00:46:33.715Z,83.30
2018-10-19T00:49:05.449Z,83.40
2018-10-19T00:51:39.081Z,83.90
2018-10-19T00:54:10.854Z,84.50
2018-10-19T00:56:42.736Z,85.10
2018-10-19T00:59:14.426Z,85.30
2018-10-19T01:01:46.053Z,84.50
2018-10-19T01:04:17.758Z,85.40
2018-10-19T01:06:49.385Z,85.00
2018-10-19T01:09:21.414Z,84.80
2018-10-19T01:11:53.162Z,85.50
2018-10-19T01:14:25.608Z,86.00
2018-10-19T01:16:57.288Z,86.80
2018-10-19T01:19:29.921Z,85.60
2018-10-19T01:22:02.627Z,85.70
2018-10-19T01:24:34.669Z,86.50
2018-10-19T01:27:06.972Z,85.50
2018-10-19T01:29:39.218Z,85.40
2018-10-19T01:32:11.215Z,85.40
2018-10-19T01:34:44.032Z,85.50
2018-10-19T01:37:16.034Z,85.80
2018-10-19T01:39:48.331Z,86.10
2018-10-19T01:42:20.177Z,86.40
2018-10-19T01:44:52.338Z,86.70
2018-10-19T01:47:24.506Z,86.90
2018-10-19T01:49:57.104Z,87.50
2018-10-19T01:52:29.449Z,86.60
2018-10-19T01:55:01.245Z,87.20
2018-10-19T01:57:33.008Z,87.20
2018-10-19T02:00:05.609Z,86.90
2018-10-19T02:02:38.177Z,86.70
2018-10-19T02:05:10.380Z,86.40
2018-10-19T02:07:44.499Z,86.20
2018-10-19T02:10:15.977Z,86.50
2018-10-19T02:12:47.693Z,86.70
2018-10-19T02:15:19.994Z,86.80
2018-10-19T02:17:52.611Z,86.90
2018-10-19T02:20:24.447Z,87.20
2018-10-19T02:22:56.364Z,87.50
2018-10-19T02:25:28.585Z,87.10
2018-10-19T02:28:00.947Z,87.50
2018-10-19T02:30:33.598Z,86.90
2018-10-19T02:33:06.011Z,87.00
2018-10-19T02:35:38.153Z,87.70
2018-10-19T02:38:10.389Z,87.70
2018-10-19T02:40:42.151Z,87.60
2018-10-19T02:43:14.739Z,88.00
2018-10-19T02:45:46.498Z,88.40
2018-10-19T02:48:18.799Z,88.30
2018-10-19T02:50:50.538Z,88.20
2018-10-19T02:53:22.454Z,88.30
2018-10-19T02:55:54.430Z,88.40
2018-10-19T02:58:26.759Z,88.40
2018-10-19T03:00:58.758Z,88.20
2018-10-19T03:03:30.941Z,88.60
2018-10-19T03:06:03.190Z,89.00
2018-10-19T03:08:35.449Z,88.90
2018-10-19T03:11:08.168Z,88.60
2018-10-19T03:13:40.597Z,88.40
2018-10-19T03:16:12.539Z,88.20
2018-10-19T03:18:45.233Z,87.90
2018-10-19T03:21:17.069Z,88.00
2018-10-19T03:23:48.731Z,87.70
2018-10-19T03:26:20.597Z,87.50
2018-10-19T03:28:52.388Z,87.80
2018-10-19T03:31:24.297Z,87.90
2018-10-19T03:33:56.310Z,88.00
2018-10-19T03:36:27.988Z,88.20
2018-10-19T03:39:01.082Z,88.00
2018-10-19T03:41:33.265Z,87.90
2018-10-19T03:44:05.147Z,87.80
2018-10-19T03:46:37.194Z,88.40
2018-10-19T03:49:09.185Z,88.80
2018-10-19T03:51:41.363Z,88.50
2018-10-19T03:54:12.115Z,88.70
2018-10-19T03:56:42.795Z,88.70
2018-10-19T03:59:13.634Z,88.60
2018-10-19T04:01:44.525Z,88.60
2018-10-19T04:04:15.315Z,89.20
2018-10-19T04:06:46.197Z,89.20
2018-10-19T04:09:17.329Z,88.80
2018-10-19T04:11:48.101Z,88.90
2018-10-19T04:14:18.979Z,89.00
2018-10-19T04:16:49.859Z,88.80
2018-10-19T04:19:20.759Z,88.80
2018-10-19T04:21:51.680Z,89.30
2018-10-19T04:24:22.572Z,89.10
2018-10-19T04:26:53.519Z,89.00
2018-10-19T04:29:24.519Z,89.20
2018-10-19T04:31:55.679Z,89.60
2018-10-19T04:34:26.770Z,89.90
2018-10-19T04:37:04.563Z,90.00
2018-10-19T04:39:35.954Z,90.30
2018-10-19T04:42:06.987Z,90.10
2018-10-19T04:44:37.819Z,90.00
2018-10-19T04:47:09.119Z,90.10
2018-10-19T04:49:39.970Z,89.30
2018-10-19T04:52:11.216Z,89.30
2018-10-19T04:54:42.115Z,90.10
2018-10-19T04:57:13.210Z,89.90
2018-10-19T04:59:44.194Z,90.00
2018-10-19T05:02:15.293Z,90.00
2018-10-19T05:04:46.370Z,90.00
2018-10-19T05:07:17.273Z,90.30
2018-10-19T05:09:48.305Z,90.40
2018-10-19T05:12:20.523Z,90.30
2018-10-19T05:14:51.628Z,90.10
2018-10-19T05:17:22.682Z,90.00
2018-10-19T05:19:53.786Z,90.30
2018-10-19T05:22:24.807Z,89.80
2018-10-19T05:24:55.835Z,89.40
2018-10-19T05:27:26.850Z,89.40
2018-10-19T05:29:57.713Z,89.30
2018-10-19T05:32:28.611Z,89.30
2018-10-19T05:35:02.038Z,89.10
2018-10-19T05:37:33.308Z,88.80
2018-10-19T05:40:04.623Z,88.20
2018-10-19T05:42:35.594Z,87.70
2018-10-19T05:45:08.638Z,87.70
2018-10-19T05:47:39.607Z,87.20
2018-10-19T05:50:12.240Z,86.80
2018-10-19T05:52:42.949Z,86.00
2018-10-19T05:55:14.165Z,85.60
2018-10-19T05:57:45.135Z,84.90
2018-10-19T06:00:16.085Z,84.60
2018-10-19T06:02:46.888Z,84.10
2018-10-19T06:05:17.859Z,83.30
2018-10-19T06:07:48.876Z,82.60
2018-10-19T06:10:19.778Z,83.00
2018-10-19T06:12:50.756Z,82.30
2018-10-19T06:15:21.825Z,81.90
2018-10-19T06:17:52.723Z,81.80
2018-10-19T06:20:23.704Z,80.30
2018-10-19T06:22:54.709Z,77.20
2018-10-19T06:25:25.640Z,76.20
2018-10-19T06:27:56.652Z,75.00
2018-10-19T06:30:27.490Z,74.50
2018-10-19T06:32:58.508Z,73.90
2018-10-19T06:35:29.430Z,73.60
2018-10-19T06:38:00.385Z,72.70
2018-10-19T06:40:31.323Z,72.80
2018-10-19T06:43:02.194Z,72.50
2018-10-19T06:45:33.274Z,72.50
2018-10-19T06:48:04.192Z,71.90
2018-10-19T06:50:35.148Z,71.60
2018-10-19T06:53:06.302Z,71.40
2018-10-19T06:55:37.525Z,71.50
2018-10-19T06:58:08.793Z,70.30
2018-10-19T07:00:39.718Z,70.70
2018-10-19T07:03:10.658Z,70.20
2018-10-19T07:05:41.739Z,69.50
2018-10-19T07:08:12.540Z,69.00
2018-10-19T07:10:43.499Z,69.10
2018-10-19T07:13:15.230Z,67.90
2018-10-19T07:15:46.252Z,67.20
2018-10-19T07:18:17.173Z,68.50
2018-10-19T07:20:48.323Z,66.80
2018-10-19T07:23:19.300Z,65.90
2018-10-19T07:25:50.446Z,64.90
2018-10-19T07:28:21.438Z,64.20
2018-10-19T07:30:52.492Z,63.40
2018-10-19T07:33:23.633Z,62.20
2018-10-19T07:35:54.551Z,62.00
2018-10-19T07:38:25.720Z,62.90
2018-10-19T07:40:57.767Z,62.30
2018-10-19T07:43:28.781Z,60.90
2018-10-19T07:45:59.714Z,60.20
2018-10-19T07:48:30.880Z,59.60
2018-10-19T07:51:02.410Z,59.50
2018-10-19T07:53:33.431Z,58.50
2018-10-19T07:56:04.883Z,58.40
2018-10-19T07:58:36.085Z,58.20
2018-10-19T08:01:07.273Z,58.00
2018-10-19T08:03:38.411Z,57.90
2018-10-19T08:06:09.510Z,58.30
2018-10-19T08:08:40.605Z,57.40
2018-10-19T08:11:11.794Z,56.60
2018-10-19T08:13:42.817Z,55.20
2018-10-19T08:16:13.874Z,55.30
2018-10-19T08:18:45.056Z,54.90
2018-10-19T08:21:16.065Z,54.90
2018-10-19T08:23:47.292Z,54.00
2018-10-19T08:26:18.452Z,53.10
2018-10-19T08:28:49.478Z,52.90
2018-10-19T08:31:20.563Z,52.80
2018-10-19T08:33:51.512Z,51.80
2018-10-19T08:36:22.420Z,51.90
2018-10-19T08:38:53.698Z,51.50
2018-10-19T08:41:24.795Z,51.90
2018-10-19T08:43:55.824Z,51.30
2018-10-19T08:46:32.177Z,50.50
2018-10-19T08:49:03.222Z,49.70
2018-10-19T08:51:34.238Z,48.90
2018-10-19T08:54:05.522Z,48.80
2018-10-19T08:56:36.756Z,48.90
2018-10-19T08:59:07.907Z,49.70
2018-10-19T09:01:38.861Z,49.40
2018-10-19T09:04:09.783Z,48.50
2018-10-19T09:06:40.719Z,48.30
2018-10-19T09:09:12.930Z,48.00
2018-10-19T09:11:44.124Z,46.90
2018-10-19T09:14:31.340Z,46.20
2018-10-19T09:17:02.351Z,46.20
2018-10-19T09:19:33.283Z,46.80
2018-10-19T09:22:04.301Z,46.70
2018-10-19T09:24:35.221Z,46.80
2018-10-19T09:27:06.683Z,46.70
2018-10-19T09:29:37.806Z,46.50
2018-10-19T09:32:08.747Z,46.40
2018-10-19T09:34:39.660Z,46.10
2018-10-19T09:37:11.567Z,45.20
2018-10-19T09:39:42.623Z,45.00
2018-10-19T09:42:13.611Z,44.40
2018-10-19T09:44:44.699Z,43.90
2018-10-19T09:47:15.776Z,44.00
2018-10-19T09:49:46.658Z,44.90
2018-10-19T09:52:17.739Z,46.00
2018-10-19T09:54:48.495Z,45.90
2018-10-19T09:57:19.448Z,44.90
2018-10-19T09:59:50.337Z,44.70
2018-10-19T10:02:21.222Z,45.10
2018-10-19T10:04:52.773Z,44.20
2018-10-19T10:07:23.854Z,44.10
2018-10-19T10:09:54.675Z,44.10
2018-10-19T10:12:25.859Z,43.80
2018-10-19T10:14:56.740Z,43.40
2018-10-19T10:17:27.868Z,43.70
2018-10-19T10:19:58.886Z,43.80
2018-10-19T10:22:29.836Z,43.90
2018-10-19T10:25:00.665Z,43.90
2018-10-19T10:27:31.773Z,44.10
2018-10-19T10:30:02.631Z,43.80
2018-10-19T10:32:33.583Z,44.40
2018-10-19T10:35:04.494Z,43.40
2018-10-19T10:37:35.443Z,43.00
2018-10-19T10:40:07.093Z,43.20
2018-10-19T10:42:38.540Z,43.70
2018-10-19T10:45:09.938Z,44.00
2018-10-19T10:47:40.853Z,44.30
2018-10-19T10:50:11.827Z,44.20
2018-10-19T10:52:42.926Z,44.00
2018-10-19T10:55:13.848Z,43.00
2018-10-19T10:57:44.707Z,43.20
2018-10-19T11:00:15.652Z,43.30
2018-10-19T11:02:46.777Z,43.20
2018-10-19T11:05:17.802Z,43.00
2018-10-19T11:07:48.748Z,42.20
2018-10-19T11:10:19.925Z,42.70
2018-10-19T11:12:51.202Z,42.90
2018-10-19T11:15:22.083Z,43.10
2018-10-19T11:17:52.979Z,42.30
2018-10-19T11:20:23.921Z,40.00
2018-10-19T11:22:54.883Z,39.60
2018-10-19T11:25:25.920Z,40.40
2018-10-19T11:27:57.430Z,37.70
2018-10-19T11:30:28.372Z,38.00
2018-10-19T11:32:59.245Z,38.20
2018-10-19T11:35:30.114Z,39.50
2018-10-19T11:38:01.022Z,40.60
2018-10-19T11:40:38.843Z,40.80
2018-10-19T11:43:09.865Z,39.60
2018-10-19T11:45:40.756Z,39.80
2018-10-19T11:48:11.564Z,39.10
2018-10-19T11:50:42.475Z,37.40
2018-10-19T11:53:13.385Z,39.20
2018-10-19T11:55:44.574Z,38.00
2018-10-19T11:58:15.683Z,37.50
2018-10-19T12:00:46.624Z,37.50
2018-10-19T12:03:17.578Z,39.00
2018-10-19T12:05:48.490Z,41.10
2018-10-19T12:08:19.606Z,41.30
2018-10-19T12:10:50.932Z,43.00
2018-10-19T12:13:24.995Z,42.60
2018-10-19T12:15:57.613Z,44.30
2018-10-19T12:18:28.510Z,43.70
2018-10-19T12:20:59.478Z,41.60
2018-10-19T12:23:30.343Z,44.00
2018-10-19T12:26:01.393Z,40.70
2018-10-19T12:28:32.461Z,39.30
2018-10-19T12:31:03.571Z,37.80
2018-10-19T12:33:34.601Z,35.40
2018-10-19T12:36:06.204Z,36.60
2018-10-19T12:38:37.210Z,37.20
2018-10-19T12:41:08.395Z,36.80
2018-10-19T12:43:39.335Z,37.80
2018-10-19T12:46:44.817Z,36.30
2018-10-19T12:49:21.544Z,34.10
2018-10-19T12:51:52.715Z,33.80
2018-10-19T12:54:23.737Z,37.30
2018-10-19T12:56:54.698Z,36.70
2018-10-19T12:59:25.442Z,35.60
2018-10-19T13:01:56.434Z,35.70
2018-10-19T13:04:27.439Z,36.40
2018-10-19T13:06:58.372Z,38.10
2018-10-19T13:09:29.306Z,38.00
2018-10-19T13:12:00.211Z,37.60
2018-10-19T13:14:31.025Z,37.80
2018-10-19T13:17:02.001Z,36.60
2018-10-19T13:19:33.003Z,37.90
2018-10-19T13:22:03.916Z,39.20
2018-10-19T13:24:34.753Z,38.50
2018-10-19T13:27:05.703Z,37.80
2018-10-19T13:29:36.707Z,38.30
2018-10-19T13:32:07.773Z,39.70
2018-10-19T13:34:38.776Z,38.50
2018-10-19T13:37:09.821Z,39.00
2018-10-19T13:39:40.693Z,39.60
2018-10-19T13:42:11.686Z,40.10
2018-10-19T13:44:42.590Z,40.40
2018-10-19T13:47:13.640Z,40.80
2018-10-19T13:49:44.839Z,40.30
2018-10-19T13:52:15.739Z,40.10
2018-10-19T13:54:47.090Z,39.80
2018-10-19T13:57:18.053Z,40.50
2018-10-19T13:59:49.370Z,40.90
2018-10-19T14:02:20.275Z,41.20
2018-10-19T14:04:51.647Z,41.80
2018-10-19T14:07:22.586Z,42.20
2018-10-19T14:09:53.627Z,42.20
2018-10-19T14:12:24.712Z,42.50
2018-10-19T14:14:55.623Z,42.40
2018-10-19T14:17:26.615Z,42.80
2018-10-19T14:19:57.576Z,42.90
2018-10-19T14:22:28.453Z,43.00
2018-10-19T14:24:59.298Z,42.80
2018-10-19T14:27:30.300Z,42.80
2018-10-19T14:30:01.416Z,43.00
2018-10-19T14:32:32.558Z,43.50
2018-10-19T14:35:03.644Z,44.30
2018-10-19T14:37:35.380Z,44.50
2018-10-19T14:40:08.658Z,44.90
2018-10-19T14:42:40.388Z,46.30
2018-10-19T14:45:12.866Z,46.60
2018-10-19T14:47:44.756Z,46.90
2018-10-19T14:50:16.974Z,47.30
2018-10-19T14:52:47.894Z,48.10
2018-10-19T14:55:20.039Z,48.70
2018-10-19T14:57:52.605Z,49.30
2018-10-19T15:00:23.813Z,49.70
2018-10-19T15:02:55.108Z,50.30
2018-10-19T15:05:26.683Z,50.80
2018-10-19T15:07:59.089Z,50.60
2018-10-19T15:10:30.554Z,50.50
2018-10-19T15:13:01.615Z,50.90
2018-10-19T15:15:32.873Z,51.40
2018-10-19T15:18:04.337Z,51.90
2018-10-19T15:20:36.353Z,52.30
2018-10-19T15:23:07.736Z,52.70
2018-10-19T15:25:38.737Z,53.00
2018-10-19T15:28:09.668Z,53.60
2018-10-19T15:30:40.585Z,53.90
2018-10-19T15:33:11.967Z,54.30
2018-10-19T15:35:42.836Z,54.50
2018-10-19T15:38:13.734Z,54.70
2018-10-19T15:40:44.597Z,55.10
2018-10-19T15:43:15.565Z,55.50
2018-10-19T15:45:46.447Z,55.90
2018-10-19T15:48:17.496Z,56.20
2018-10-19T15:50:48.478Z,56.50
2018-10-19T15:53:19.515Z,57.00
2018-10-19T15:55:50.603Z,57.50
2018-10-19T15:58:21.671Z,57.70
2018-10-19T16:00:52.585Z,58.10
2018-10-19T16:03:23.765Z,58.30
2018-10-19T16:05:54.921Z,58.30
2018-10-19T16:08:26.245Z,58.60
2018-10-19T16:10:58.094Z,58.70
2018-10-19T16:13:30.146Z,58.80
2018-10-19T16:16:02.226Z,59.00
2018-10-19T16:18:34.381Z,59.30
2018-10-19T16:21:07.162Z,59.70
2018-10-19T16:23:38.192Z,59.70
2018-10-19T16:26:09.318Z,59.80
2018-10-19T16:28:40.602Z,60.00
2018-10-19T16:31:11.716Z,60.00
2018-10-19T16:33:42.832Z,60.10
2018-10-19T16:36:13.913Z,60.60
2018-10-19T16:38:44.978Z,60.90
2018-10-19T16:41:16.220Z,61.10
2018-10-19T16:43:47.184Z,61.60
2018-10-19T16:46:18.203Z,61.60
2018-10-19T16:48:49.122Z,61.70
2018-10-19T16:51:20.141Z,62.20
2018-10-19T16:53:51.242Z,62.40
2018-10-19T16:56:22.439Z,62.90
2018-10-19T16:58:53.736Z,63.30
2018-10-19T17:01:25.219Z,63.30
2018-10-19T17:03:56.372Z,63.30
2018-10-19T17:06:27.509Z,63.90
2018-10-19T17:08:58.593Z,64.60
2018-10-19T17:11:29.704Z,64.90
2018-10-19T17:14:00.787Z,65.60
2018-10-19T17:16:32.118Z,65.50
2018-10-19T17:19:03.576Z,65.60
2018-10-19T17:21:34.576Z,65.70
2018-10-19T17:24:05.937Z,65.70
2018-10-19T17:26:37.093Z,65.70
2018-10-19T17:29:08.192Z,65.80
2018-10-19T17:31:39.472Z,65.90
2018-10-19T17:34:10.537Z,66.00
2018-10-19T17:36:41.796Z,66.40
2018-10-19T17:39:13.232Z,66.70
2018-10-19T17:41:44.375Z,66.80
2018-10-19T17:44:15.399Z,66.90
2018-10-19T17:46:46.452Z,66.90
2018-10-19T17:49:17.844Z,66.70
2018-10-19T17:51:48.915Z,66.90
2018-10-19T17:54:20.153Z,67.00
2018-10-19T17:56:51.446Z,67.10
2018-10-19T17:59:22.610Z,68.00
2018-10-19T18:01:53.883Z,67.60
2018-10-19T18:04:25.042Z,68.00
2018-10-19T18:06:56.371Z,68.30
2018-10-19T18:09:27.681Z,68.50
2018-10-19T18:11:58.817Z,68.60
2018-10-19T18:14:30.177Z,68.60
2018-10-19T18:17:01.420Z,68.80
2018-10-19T18:19:32.401Z,68.90
2018-10-19T18:22:04.040Z,69.00
2018-10-19T18:24:35.015Z,69.30
2018-10-19T18:27:06.306Z,69.60
2018-10-19T18:29:37.393Z,69.80
2018-10-19T18:32:08.768Z,69.80
2018-10-19T18:34:41.280Z,69.90
2018-10-19T18:37:13.061Z,69.90
2018-10-19T18:39:44.135Z,70.10
2018-10-19T18:42:15.223Z,70.30
2018-10-19T18:44:46.428Z,70.70
2018-10-19T18:47:17.565Z,70.80
2018-10-19T18:49:48.490Z,71.10
2018-10-19T18:52:19.524Z,72.00
2018-10-19T18:54:50.539Z,71.20
2018-10-19T18:57:21.779Z,71.30
2018-10-19T18:59:53.007Z,71.30
2018-10-19T19:02:24.233Z,71.30
2018-10-19T19:04:55.455Z,71.30
2018-10-19T19:07:26.507Z,71.00
2018-10-19T19:10:02.589Z,71.10
2018-10-19T19:12:33.741Z,71.00
2018-10-19T19:15:05.652Z,71.30
2018-10-19T19:17:37.267Z,71.70
2018-10-19T19:20:14.771Z,72.20
2018-10-19T19:22:45.727Z,72.70
2018-10-19T19:25:21.922Z,73.10
2018-10-19T19:27:52.845Z,73.00
2018-10-19T19:30:24.199Z,73.20
2018-10-19T19:33:00.184Z,73.20
2018-10-19T19:35:31.239Z,73.50
2018-10-19T19:38:02.499Z,73.70
2018-10-19T19:40:38.465Z,74.30
2018-10-19T19:43:09.506Z,74.40
2018-10-19T19:45:40.540Z,74.70
2018-10-19T19:48:16.496Z,74.60
2018-10-19T19:50:47.596Z,74.40
2018-10-19T19:53:18.604Z,74.40
2018-10-19T19:55:49.514Z,74.50
2018-10-19T19:58:20.411Z,74.40
2018-10-19T20:00:51.525Z,74.80
2018-10-19T20:03:22.542Z,75.50
2018-10-19T20:05:53.573Z,75.80
2018-10-19T20:08:25.066Z,76.10
2018-10-19T20:10:56.049Z,76.10
2018-10-19T20:13:27.067Z,76.10
2018-10-19T20:15:58.226Z,76.00
2018-10-19T20:18:29.175Z,76.20
2018-10-19T20:21:00.470Z,76.10
2018-10-19T20:23:31.392Z,76.40
2018-10-19T20:26:02.445Z,76.70
2018-10-19T20:28:33.461Z,76.40
2018-10-19T20:31:04.633Z,76.20
2018-10-19T20:33:35.625Z,76.50
2018-10-19T20:36:06.622Z,76.40
2018-10-19T20:38:37.642Z,76.50
2018-10-19T20:41:08.599Z,76.60
2018-10-19T20:43:39.694Z,76.70
2018-10-19T20:46:10.860Z,76.80
2018-10-19T20:48:41.884Z,76.70
2018-10-19T20:51:12.809Z,76.30
2018-10-19T20:53:43.752Z,76.10
2018-10-19T20:56:14.691Z,76.50
2018-10-19T20:58:45.558Z,76.50
2018-10-19T21:01:16.502Z,76.50
2018-10-19T21:03:47.636Z,76.60
2018-10-19T21:06:19.749Z,76.60
2018-10-19T21:08:50.702Z,76.80
2018-10-19T21:11:21.650Z,76.70
2018-10-19T21:13:52.600Z,76.80
2018-10-19T21:16:24.000Z,76.40
2018-10-19T21:18:55.049Z,76.60
2018-10-19T21:21:26.067Z,76.80
2018-10-19T21:23:57.406Z,77.00
2018-10-19T21:26:28.526Z,77.10
2018-10-19T21:28:59.681Z,77.50
2018-10-19T21:31:31.131Z,77.50
2018-10-19T21:34:02.509Z,77.80
2018-10-19T21:36:33.677Z,77.80
2018-10-19T21:39:05.366Z,77.90
2018-10-19T21:41:36.628Z,78.00
2018-10-19T21:44:08.015Z,77.90
2018-10-19T21:46:39.318Z,77.90
2018-10-19T21:49:10.632Z,77.60
2018-10-19T21:51:41.711Z,78.10
2018-10-19T21:54:12.780Z,78.30
2018-10-19T21:56:43.891Z,78.50
2018-10-19T21:59:14.999Z,78.80
2018-10-19T22:01:46.284Z,79.30
2018-10-19T22:04:17.317Z,79.40
2018-10-19T22:06:48.608Z,79.10
2018-10-19T22:09:19.737Z,79.20
2018-10-19T22:11:50.887Z,79.60
2018-10-19T22:14:22.039Z,79.60
2018-10-19T22:16:53.427Z,79.50
2018-10-19T22:19:25.173Z,79.40
2018-10-19T22:21:56.276Z,79.50
2018-10-19T22:24:27.295Z,79.50
2018-10-19T22:26:58.495Z,79.50
2018-10-19T22:29:29.473Z,79.70
2018-10-19T22:32:00.457Z,80.00
2018-10-19T22:34:31.435Z,80.00
2018-10-19T22:37:02.424Z,80.40
2018-10-19T22:39:33.414Z,80.60
2018-10-19T22:42:04.439Z,80.50
2018-10-19T22:44:36.917Z,80.40
2018-10-19T22:47:08.109Z,80.80
2018-10-19T22:49:39.038Z,80.90
2018-10-19T22:52:10.106Z,81.20
2018-10-19T22:54:41.174Z,81.30
2018-10-19T22:57:12.678Z,81.50
2018-10-19T22:59:43.725Z,81.40
2018-10-19T23:02:14.640Z,80.90
2018-10-19T23:04:45.660Z,80.90
2018-10-19T23:07:16.709Z,80.90
2018-10-19T23:09:47.926Z,81.20
2018-10-19T23:12:18.970Z,81.70
2018-10-19T23:14:50.196Z,81.70
2018-10-19T23:17:21.306Z,81.50
2018-10-19T23:19:52.302Z,82.20
2018-10-19T23:22:23.296Z,83.50
2018-10-19T23:24:54.302Z,82.60
2018-10-19T23:27:25.356Z,82.90
2018-10-19T23:29:56.399Z,82.90
2018-10-19T23:32:27.440Z,83.10
2018-10-19T23:34:58.476Z,82.60
2018-10-19T23:37:29.607Z,82.80
2018-10-19T23:40:00.652Z,82.50
2018-10-19T23:42:31.572Z,82.70
2018-10-19T23:45:02.528Z,83.10
2018-10-19T23:47:33.562Z,83.10
2018-10-19T23:50:04.605Z,83.50
2018-10-19T23:52:35.615Z,83.80
2018-10-19T23:55:07.352Z,84.00
2018-10-19T23:57:38.247Z,83.90
